Time;durP1;ratioP1;P1;durP2;ratioP2;P2;SDS_P1;SDS_P2;PMS_P1;PMS_P2;Temp;Humidity;BMP_temperature;BMP_pressure;BME280_temperature;BME280_humidity;BME280_pressure;Samples;Min_cycle;Max_cycle;Signal;HPM_P1;HPM_P2
2022/11/06 00:01:30;;;;;;;8.90;4.13;;;;;;;;;;4974937;28;20722;-88
2022/11/06 00:03:58;;;;;;;9.40;3.92;;;;;;;;;;4987813;28;20048;-88
2022/11/06 00:09:19;;;;;;;6.60;3.15;;;;;;;;;;5005898;28;20100;-89
2022/11/06 00:11:48;;;;;;;7.97;3.20;;;;;;;;;;4989917;28;20095;-89
2022/11/06 00:14:20;;;;;;;5.95;3.28;;;;;;;;;;4987074;28;20038;-89
2022/11/06 00:16:48;;;;;;;6.93;3.53;;;;;;;;;;4998033;28;20069;-90
2022/11/06 00:19:16;;;;;;;8.05;3.42;;;;;;;;;;4990518;28;20137;-90
2022/11/06 00:21:59;;;;;;;10.20;3.80;;;;;;;;;;4999524;28;20104;-90
2022/11/06 00:24:26;;;;;;;6.10;3.22;;;;;;;;;;5005406;28;20041;-91
2022/11/06 00:26:54;;;;;;;7.95;3.42;;;;;;;;;;5007724;28;20049;-90
2022/11/06 00:29:46;;;;;;;8.40;3.40;;;;;;;;;;4974071;28;20045;-90
2022/11/06 00:32:18;;;;;;;7.45;3.22;;;;;;;;;;5004501;28;20037;-90
2022/11/06 00:34:50;;;;;;;7.57;3.55;;;;;;;;;;4996772;28;20038;-88
2022/11/06 00:37:23;;;;;;;9.70;3.72;;;;;;;;;;5006080;28;20100;-89
2022/11/06 00:39:50;;;;;;;6.22;3.10;;;;;;;;;;5003966;28;20054;-90
2022/11/06 00:42:22;;;;;;;8.75;3.33;;;;;;;;;;4989935;28;20116;-89
2022/11/06 00:44:50;;;;;;;6.72;3.28;;;;;;;;;;5008114;28;20090;-89
2022/11/06 00:47:18;;;;;;;8.50;3.10;;;;;;;;;;4986659;28;20138;-89
2022/11/06 00:49:46;;;;;;;11.35;3.38;;;;;;;;;;5007036;28;20050;-90
2022/11/06 00:52:38;;;;;;;9.15;3.05;;;;;;;;;;4975908;28;20053;-89
2022/11/06 00:55:13;;;;;;;7.90;2.90;;;;;;;;;;4988150;28;20064;-89
2022/11/06 00:58:12;;;;;;;5.18;2.50;;;;;;;;;;4990032;28;20046;-90
2022/11/06 01:00:40;;;;;;;5.00;2.63;;;;;;;;;;4984894;28;20049;-89
2022/11/06 01:03:08;;;;;;;5.78;3.10;;;;;;;;;;4997031;28;20579;-91
2022/11/06 01:06:09;;;;;;;7.07;3.13;;;;;;;;;;4989595;28;20029;-91
2022/11/06 01:08:37;;;;;;;7.43;3.00;;;;;;;;;;4989393;28;20069;-91
2022/11/06 01:11:17;;;;;;;8.38;3.95;;;;;;;;;;5006104;28;20056;-89
2022/11/06 01:13:45;;;;;;;7.05;3.08;;;;;;;;;;4985395;28;20416;-89
2022/11/06 01:16:14;;;;;;;4.57;2.90;;;;;;;;;;5007937;28;20034;-89
2022/11/06 01:18:43;;;;;;;8.43;3.28;;;;;;;;;;5006581;28;20112;-89
2022/11/06 01:21:17;;;;;;;5.35;2.67;;;;;;;;;;4974805;28;20056;-89
2022/11/06 01:23:45;;;;;;;6.88;2.83;;;;;;;;;;4994989;28;20053;-88
2022/11/06 01:26:13;;;;;;;10.00;3.47;;;;;;;;;;5009100;28;20042;-89
2022/11/06 01:28:41;;;;;;;7.10;3.10;;;;;;;;;;4998396;28;20748;-90
2022/11/06 01:31:12;;;;;;;7.93;3.10;;;;;;;;;;4991501;28;20048;-89
2022/11/06 01:33:39;;;;;;;7.28;3.42;;;;;;;;;;4973854;28;20038;-89
2022/11/06 01:36:14;;;;;;;4.70;2.80;;;;;;;;;;4999198;28;20447;-90
2022/11/06 01:38:44;;;;;;;8.32;2.80;;;;;;;;;;4984716;28;20141;-90
2022/11/06 01:41:15;;;;;;;8.18;2.70;;;;;;;;;;4983134;28;20046;-90
2022/11/06 01:44:34;;;;;;;6.13;2.80;;;;;;;;;;5007855;28;20507;-89
2022/11/06 01:47:15;;;;;;;6.80;2.97;;;;;;;;;;4989833;28;20045;-89
2022/11/06 01:49:43;;;;;;;5.70;3.03;;;;;;;;;;4991337;28;20049;-90
2022/11/06 01:52:18;;;;;;;7.78;3.15;;;;;;;;;;4974597;28;20393;-90
2022/11/06 01:54:51;;;;;;;5.75;2.45;;;;;;;;;;4990582;28;20575;-89
2022/11/06 01:57:23;;;;;;;7.70;2.95;;;;;;;;;;5008984;28;20046;-91
2022/11/06 01:59:55;;;;;;;7.30;2.70;;;;;;;;;;5008992;28;20065;-89
2022/11/06 02:02:22;;;;;;;6.78;2.63;;;;;;;;;;4977527;28;20373;-90
2022/11/06 02:05:15;;;;;;;8.02;2.80;;;;;;;;;;4995330;28;20111;-89
2022/11/06 02:07:49;;;;;;;6.32;3.00;;;;;;;;;;4977334;28;20069;-89
2022/11/06 02:10:16;;;;;;;6.13;2.72;;;;;;;;;;5011775;28;20033;-90
2022/11/06 02:12:50;;;;;;;10.48;3.20;;;;;;;;;;4993720;28;20111;-90
2022/11/06 02:15:31;;;;;;;7.20;2.97;;;;;;;;;;4992691;28;20038;-89
2022/11/06 02:18:29;;;;;;;5.65;3.03;;;;;;;;;;4993004;28;20041;-89
2022/11/06 02:24:37;;;;;;;7.10;2.97;;;;;;;;;;5006889;28;20120;-90
2022/11/06 02:27:10;;;;;;;6.90;3.00;;;;;;;;;;4971810;28;20050;-89
2022/11/06 02:30:06;;;;;;;5.38;3.53;;;;;;;;;;5009591;28;20048;-89
2022/11/06 02:33:17;;;;;;;9.88;2.83;;;;;;;;;;4993086;28;20037;-90
2022/11/06 02:36:04;;;;;;;5.63;2.42;;;;;;;;;;5007152;28;20042;-89
2022/11/06 02:39:00;;;;;;;6.13;2.83;;;;;;;;;;4987742;28;20033;-88
2022/11/06 02:41:34;;;;;;;6.45;2.90;;;;;;;;;;4977217;28;20060;-89
2022/11/06 02:44:06;;;;;;;6.40;2.80;;;;;;;;;;5006635;28;20883;-89
2022/11/06 02:46:42;;;;;;;7.82;2.95;;;;;;;;;;4992794;28;20052;-88
2022/11/06 02:49:39;;;;;;;7.20;3.08;;;;;;;;;;5009192;28;20121;-89
2022/11/06 02:52:16;;;;;;;10.57;3.25;;;;;;;;;;5003324;28;20037;-89
2022/11/06 02:55:31;;;;;;;11.30;2.75;;;;;;;;;;5007072;28;20046;-88
2022/11/06 02:58:21;;;;;;;6.55;3.05;;;;;;;;;;4923924;29;20079;-89
2022/11/06 03:01:01;;;;;;;5.18;2.60;;;;;;;;;;4908399;29;20406;-89
2022/11/06 03:03:56;;;;;;;6.93;3.25;;;;;;;;;;4907883;29;20054;-88
2022/11/06 03:06:46;;;;;;;7.47;3.17;;;;;;;;;;4923214;29;20060;-88
2022/11/06 03:09:24;;;;;;;9.55;2.90;;;;;;;;;;4928131;29;20075;-89
2022/11/06 03:12:14;;;;;;;6.70;3.08;;;;;;;;;;4924046;29;20134;-89
2022/11/06 03:15:39;;;;;;;5.93;2.72;;;;;;;;;;4924015;29;20066;-89
2022/11/06 03:18:21;;;;;;;6.43;2.53;;;;;;;;;;4923007;29;20064;-89
2022/11/06 03:21:05;;;;;;;4.65;2.65;;;;;;;;;;4925445;29;20148;-89
2022/11/06 03:23:48;;;;;;;5.53;3.00;;;;;;;;;;4923122;29;20449;-89
2022/11/06 03:26:47;;;;;;;5.68;2.80;;;;;;;;;;4922818;29;20048;-89
2022/11/06 03:29:44;;;;;;;6.45;2.55;;;;;;;;;;4907244;29;20466;-89
2022/11/06 03:32:27;;;;;;;11.68;3.05;;;;;;;;;;4959702;28;20058;-88
2022/11/06 03:35:02;;;;;;;6.72;2.60;;;;;;;;;;5008883;28;20496;-89
2022/11/06 03:37:39;;;;;;;6.70;2.70;;;;;;;;;;5009824;28;20080;-88
2022/11/06 03:40:12;;;;;;;4.57;2.63;;;;;;;;;;4989088;28;20096;-88
2022/11/06 03:43:08;;;;;;;6.95;2.97;;;;;;;;;;4972518;28;20393;-89
2022/11/06 03:45:39;;;;;;;6.55;2.58;;;;;;;;;;4992081;28;20129;-89
2022/11/06 03:48:18;;;;;;;7.15;3.15;;;;;;;;;;4991333;28;20061;-89
2022/11/06 03:51:03;;;;;;;8.63;3.00;;;;;;;;;;4991390;28;20049;-89
2022/11/06 03:53:57;;;;;;;5.63;2.60;;;;;;;;;;4989794;28;20058;-88
2022/11/06 03:56:34;;;;;;;6.47;2.65;;;;;;;;;;5006569;28;20519;-88
2022/11/06 03:59:10;;;;;;;5.07;2.75;;;;;;;;;;5007649;28;20034;-89
2022/11/06 04:01:43;;;;;;;4.80;2.60;;;;;;;;;;5008136;28;20041;-88
2022/11/06 04:04:43;;;;;;;6.45;2.55;;;;;;;;;;5007502;28;20040;-89
2022/11/06 04:07:18;;;;;;;5.18;2.70;;;;;;;;;;4990254;28;20046;-88
2022/11/06 04:16:41;;;;;;;6.60;2.50;;;;;;;;;;4950790;28;20141;-89
2022/11/06 04:19:17;;;;;;;4.78;2.45;;;;;;;;;;4956663;28;20501;-88
2022/11/06 04:22:23;;;;;;;5.72;2.72;;;;;;;;;;4938872;28;20584;-88
2022/11/06 04:28:19;;;;;;;7.25;2.50;;;;;;;;;;4954847;28;20042;-88
2022/11/06 04:31:04;;;;;;;4.45;2.40;;;;;;;;;;4958102;28;20058;-89
2022/11/06 04:37:01;;;;;;;4.55;2.47;;;;;;;;;;4952357;28;20058;-88
2022/11/06 04:40:04;;;;;;;5.40;2.47;;;;;;;;;;4938152;28;20089;-88
2022/11/06 04:42:39;;;;;;;6.22;2.78;;;;;;;;;;4947528;28;20517;-89
2022/11/06 04:45:40;;;;;;;4.93;2.25;;;;;;;;;;4952298;28;20038;-89
2022/11/06 04:48:09;;;;;;;11.82;2.97;;;;;;;;;;5004067;28;20466;-88
2022/11/06 04:51:06;;;;;;;5.15;2.28;;;;;;;;;;5006992;28;20045;-89
2022/11/06 04:53:36;;;;;;;9.38;2.53;;;;;;;;;;5008626;28;20136;-89
2022/11/06 04:56:32;;;;;;;5.68;2.60;;;;;;;;;;4993192;28;20041;-89
2022/11/06 04:59:04;;;;;;;9.45;2.53;;;;;;;;;;5006148;28;20037;-89
2022/11/06 05:01:30;;;;;;;7.63;2.47;;;;;;;;;;5003002;28;20042;-89
2022/11/06 05:04:02;;;;;;;8.02;2.75;;;;;;;;;;4992225;28;20038;-89
2022/11/06 05:06:35;;;;;;;5.05;2.60;;;;;;;;;;5009272;28;20080;-89
2022/11/06 05:09:03;;;;;;;8.70;2.65;;;;;;;;;;4972793;28;20050;-88
2022/11/06 05:11:30;;;;;;;4.40;2.35;;;;;;;;;;4970002;28;20038;-89
2022/11/06 05:13:58;;;;;;;5.10;2.42;;;;;;;;;;5008230;28;20096;-89
2022/11/06 05:16:30;;;;;;;8.40;2.53;;;;;;;;;;4989323;28;20069;-89
2022/11/06 05:19:22;;;;;;;6.57;2.63;;;;;;;;;;5007808;28;20049;-89
2022/11/06 05:24:36;;;;;;;4.50;2.50;;;;;;;;;;5007214;28;20042;-89
2022/11/06 05:27:04;;;;;;;7.35;2.97;;;;;;;;;;4989992;28;20594;-88
2022/11/06 05:29:56;;;;;;;8.07;3.00;;;;;;;;;;5007253;28;20121;-89
2022/11/06 05:32:24;;;;;;;7.15;2.72;;;;;;;;;;4999842;28;20088;-89
2022/11/06 05:34:52;;;;;;;6.93;2.55;;;;;;;;;;4988728;28;20030;-89
2022/11/06 05:37:45;;;;;;;5.60;2.47;;;;;;;;;;4981562;28;20037;-90
2022/11/06 05:40:36;;;;;;;6.75;2.30;;;;;;;;;;4979143;28;20041;-89
2022/11/06 05:43:08;;;;;;;11.93;3.67;;;;;;;;;;4985896;28;20503;-89
2022/11/06 05:45:36;;;;;;;3.70;2.28;;;;;;;;;;5012277;28;20132;-88
2022/11/06 05:48:04;;;;;;;8.15;2.83;;;;;;;;;;4995731;28;20068;-89
2022/11/06 05:50:32;;;;;;;5.25;2.30;;;;;;;;;;4991901;28;20045;-89
2022/11/06 05:53:03;;;;;;;5.03;2.60;;;;;;;;;;5004013;28;20041;-88
2022/11/06 05:55:30;;;;;;;5.57;2.35;;;;;;;;;;5011279;28;20029;-88
2022/11/06 05:58:02;;;;;;;5.78;2.50;;;;;;;;;;5008754;28;20429;-89
2022/11/06 06:00:30;;;;;;;8.50;2.42;;;;;;;;;;5004822;28;20038;-89
2022/11/06 06:03:00;;;;;;;7.32;2.70;;;;;;;;;;5010766;28;20037;-88
2022/11/06 06:05:32;;;;;;;8.93;2.70;;;;;;;;;;5012078;28;20080;-88
2022/11/06 06:08:00;;;;;;;12.13;3.15;;;;;;;;;;5012530;28;20061;-88
2022/11/06 06:10:28;;;;;;;6.55;2.70;;;;;;;;;;4992039;28;20464;-89
2022/11/06 06:13:00;;;;;;;5.95;2.30;;;;;;;;;;5010948;28;20115;-89
2022/11/06 06:15:33;;;;;;;5.95;2.63;;;;;;;;;;4993499;28;20041;-88
2022/11/06 06:18:00;;;;;;;7.10;2.67;;;;;;;;;;4992705;28;20460;-88
2022/11/06 06:20:28;;;;;;;4.53;2.50;;;;;;;;;;5011423;28;20042;-89
2022/11/06 06:23:01;;;;;;;6.22;2.80;;;;;;;;;;5002947;28;20088;-88
2022/11/06 06:25:32;;;;;;;9.13;2.63;;;;;;;;;;5008827;28;20411;-89
2022/11/06 06:28:00;;;;;;;8.20;3.53;;;;;;;;;;5010464;28;20033;-89
2022/11/06 06:30:28;;;;;;;9.50;3.42;;;;;;;;;;5009234;28;20056;-88
2022/11/06 06:33:03;;;;;;;6.30;2.70;;;;;;;;;;5011373;28;20076;-89
2022/11/06 06:35:36;;;;;;;9.90;2.75;;;;;;;;;;5010886;28;20149;-88
2022/11/06 06:38:04;;;;;;;7.22;2.72;;;;;;;;;;4987527;28;20053;-88
2022/11/06 06:40:32;;;;;;;5.13;2.60;;;;;;;;;;4991379;28;20068;-88
2022/11/06 06:43:04;;;;;;;4.90;2.75;;;;;;;;;;4990671;28;20135;-88
2022/11/06 06:45:32;;;;;;;9.07;2.80;;;;;;;;;;5009644;28;20128;-89
2022/11/06 06:48:03;;;;;;;6.85;2.80;;;;;;;;;;5012456;28;20142;-89
2022/11/06 06:50:31;;;;;;;6.03;3.10;;;;;;;;;;5012059;28;20048;-89
2022/11/06 06:52:58;;;;;;;9.70;2.75;;;;;;;;;;4993767;28;20072;-89
2022/11/06 06:55:26;;;;;;;5.72;2.63;;;;;;;;;;4976877;28;20119;-89
2022/11/06 06:57:58;;;;;;;8.68;3.28;;;;;;;;;;5011400;28;20099;-89
2022/11/06 07:00:27;;;;;;;4.70;2.53;;;;;;;;;;4992189;28;20052;-89
2022/11/06 07:02:56;;;;;;;7.70;2.45;;;;;;;;;;5012749;28;20088;-88
2022/11/06 07:05:24;;;;;;;5.72;2.38;;;;;;;;;;5009303;28;20096;-88
2022/11/06 07:07:52;;;;;;;4.68;2.40;;;;;;;;;;5011069;28;20399;-88
2022/11/06 07:10:20;;;;;;;9.20;2.53;;;;;;;;;;4971419;28;20129;-89
2022/11/06 07:13:12;;;;;;;11.07;2.38;;;;;;;;;;5010721;28;20484;-88
2022/11/06 07:15:46;;;;;;;6.63;2.33;;;;;;;;;;4978580;28;20068;-88
2022/11/06 07:18:14;;;;;;;6.78;2.17;;;;;;;;;;4992700;28;20050;-88
2022/11/06 07:21:09;;;;;;;7.47;2.70;;;;;;;;;;5006273;28;20132;-88
2022/11/06 07:23:37;;;;;;;7.07;2.97;;;;;;;;;;4971985;28;20145;-89
2022/11/06 07:26:28;;;;;;;5.38;2.33;;;;;;;;;;5010116;28;20056;-89
2022/11/06 07:29:20;;;;;;;10.20;2.58;;;;;;;;;;4992270;28;20029;-89
2022/11/06 07:31:48;;;;;;;5.97;2.33;;;;;;;;;;4991770;28;20060;-88
2022/11/06 07:34:20;;;;;;;7.70;2.20;;;;;;;;;;5008863;28;20052;-89
2022/11/06 07:36:48;;;;;;;5.88;2.30;;;;;;;;;;4952654;28;20154;-89
2022/11/06 07:39:16;;;;;;;5.47;2.42;;;;;;;;;;4974600;28;20111;-89
2022/11/06 07:42:09;;;;;;;6.28;2.00;;;;;;;;;;5006846;28;20045;-89
2022/11/06 07:44:53;;;;;;;6.85;2.72;;;;;;;;;;5004926;28;20033;-89
2022/11/06 07:47:23;;;;;;;4.90;1.92;;;;;;;;;;5003433;28;20441;-89
2022/11/06 07:49:50;;;;;;;4.88;2.17;;;;;;;;;;5007694;28;20092;-89
2022/11/06 07:52:42;;;;;;;6.43;2.50;;;;;;;;;;5010625;28;20501;-88
2022/11/06 07:55:19;;;;;;;5.72;1.80;;;;;;;;;;4991346;28;20045;-90
2022/11/06 07:57:47;;;;;;;7.40;2.10;;;;;;;;;;5007699;28;20050;-89
2022/11/06 08:00:14;;;;;;;8.73;2.25;;;;;;;;;;4983289;28;20611;-88
2022/11/06 08:02:42;;;;;;;4.20;2.10;;;;;;;;;;5008644;28;20038;-88
2022/11/06 08:05:14;;;;;;;4.80;1.90;;;;;;;;;;5008893;28;20037;-89
2022/11/06 08:07:42;;;;;;;4.55;2.17;;;;;;;;;;5008007;28;20129;-89
2022/11/06 08:10:14;;;;;;;8.93;2.85;;;;;;;;;;4977403;28;20037;-88
2022/11/06 08:12:42;;;;;;;7.40;2.55;;;;;;;;;;5008088;28;20041;-89
2022/11/06 08:15:37;;;;;;;7.43;2.65;;;;;;;;;;4995723;28;20388;-88
2022/11/06 08:18:08;;;;;;;7.90;2.40;;;;;;;;;;4988917;28;20049;-88
2022/11/06 08:20:38;;;;;;;4.15;2.00;;;;;;;;;;4991618;28;20042;-88
2022/11/06 08:23:12;;;;;;;8.00;2.65;;;;;;;;;;5008592;28;20401;-88
2022/11/06 08:26:06;;;;;;;6.22;2.33;;;;;;;;;;5008630;28;20052;-88
2022/11/06 08:28:33;;;;;;;4.88;2.00;;;;;;;;;;5009258;28;20046;-88
2022/11/06 08:31:05;;;;;;;6.22;2.30;;;;;;;;;;5000640;28;20045;-89
2022/11/06 08:33:34;;;;;;;5.65;2.20;;;;;;;;;;4991422;28;20060;-87
2022/11/06 08:36:26;;;;;;;4.78;1.90;;;;;;;;;;5006736;28;20026;-88
2022/11/06 08:38:54;;;;;;;9.88;2.50;;;;;;;;;;5008178;28;20033;-89
2022/11/06 08:41:46;;;;;;;4.90;2.13;;;;;;;;;;5000830;28;20045;-88
2022/11/06 08:44:41;;;;;;;7.30;2.08;;;;;;;;;;5008290;28;20500;-88
2022/11/06 08:47:08;;;;;;;6.18;2.58;;;;;;;;;;5000296;28;20049;-89
2022/11/06 08:50:00;;;;;;;5.70;2.22;;;;;;;;;;5005366;28;20120;-88
2022/11/06 08:52:28;;;;;;;9.13;2.00;;;;;;;;;;4990835;28;20084;-89
2022/11/06 08:55:00;;;;;;;6.38;2.33;;;;;;;;;;4988767;28;20057;-88
2022/11/06 08:57:28;;;;;;;7.45;2.08;;;;;;;;;;5009160;28;20132;-89
2022/11/06 09:00:02;;;;;;;4.55;1.98;;;;;;;;;;4990915;28;20048;-89
2022/11/06 09:02:31;;;;;;;5.20;1.80;;;;;;;;;;4974655;28;20038;-88
2022/11/06 09:05:24;;;;;;;5.82;2.10;;;;;;;;;;5006927;28;20129;-88
2022/11/06 09:08:16;;;;;;;4.25;1.80;;;;;;;;;;5006816;28;20048;-88
2022/11/06 09:10:44;;;;;;;7.75;2.38;;;;;;;;;;4989002;28;20074;-88
2022/11/06 09:13:36;;;;;;;6.32;2.28;;;;;;;;;;4993754;28;20038;-89
2022/11/06 09:16:05;;;;;;;8.60;2.45;;;;;;;;;;4984102;28;20037;-88
2022/11/06 09:18:38;;;;;;;7.80;2.42;;;;;;;;;;4977815;28;20054;-89
2022/11/06 09:21:31;;;;;;;7.18;2.05;;;;;;;;;;5007354;28;20030;-88
2022/11/06 09:23:58;;;;;;;7.10;2.08;;;;;;;;;;4974945;28;20053;-90
2022/11/06 09:26:30;;;;;;;4.72;1.92;;;;;;;;;;4974968;28;20044;-90
2022/11/06 09:28:58;;;;;;;4.82;2.03;;;;;;;;;;5000230;28;20128;-88
2022/11/06 09:34:18;;;;;;;5.05;1.85;;;;;;;;;;5008002;28;20590;-91
2022/11/06 09:37:16;;;;;;;10.05;2.17;;;;;;;;;;4991016;28;20062;-90
2022/11/06 09:39:44;;;;;;;9.20;2.03;;;;;;;;;;5006019;28;20050;-90
2022/11/06 09:43:04;;;;;;;7.47;1.92;;;;;;;;;;4992115;28;20044;-89
2022/11/06 09:45:37;;;;;;;3.78;2.15;;;;;;;;;;4927762;28;20039;-90
2022/11/06 09:48:28;;;;;;;5.05;1.90;;;;;;;;;;4928524;29;20059;-91
2022/11/06 09:51:28;;;;;;;4.47;2.08;;;;;;;;;;4915627;29;20047;-91
2022/11/06 09:54:23;;;;;;;5.60;1.90;;;;;;;;;;4910068;28;20774;-91
2022/11/06 09:57:02;;;;;;;4.60;1.70;;;;;;;;;;4935343;28;20047;-92
2022/11/06 09:59:36;;;;;;;5.18;1.77;;;;;;;;;;4912661;28;20118;-91
2022/11/06 10:02:20;;;;;;;11.32;2.00;;;;;;;;;;4928962;28;20890;-91
2022/11/06 10:05:02;;;;;;;6.22;1.90;;;;;;;;;;4928953;28;20051;-91
2022/11/06 10:07:34;;;;;;;4.57;1.73;;;;;;;;;;4924277;28;20055;-91
2022/11/06 10:10:14;;;;;;;5.10;1.92;;;;;;;;;;4940481;28;20047;-92
2022/11/06 10:13:04;;;;;;;5.68;1.73;;;;;;;;;;4940545;28;20042;-92
2022/11/06 10:15:34;;;;;;;4.07;1.50;;;;;;;;;;4922870;28;20058;-91
2022/11/06 10:18:13;;;;;;;6.70;1.92;;;;;;;;;;4940307;28;20259;-92
2022/11/06 10:20:52;;;;;;;5.95;1.88;;;;;;;;;;4944758;28;20054;-91
2022/11/06 10:23:25;;;;;;;5.32;1.67;;;;;;;;;;5004505;28;20038;-92
2022/11/06 10:26:15;;;;;;;5.65;1.60;;;;;;;;;;4962889;28;20407;-93
2022/11/06 10:29:02;;;;;;;3.85;1.80;;;;;;;;;;4954567;28;20050;-91
2022/11/06 10:31:43;;;;;;;4.32;1.80;;;;;;;;;;4961285;28;20050;-91
2022/11/06 10:34:16;;;;;;;6.68;2.13;;;;;;;;;;4987008;28;20112;-92
2022/11/06 10:36:50;;;;;;;4.45;1.58;;;;;;;;;;4987885;28;20144;-90
2022/11/06 10:42:34;;;;;;;6.22;1.77;;;;;;;;;;5002687;28;20947;-92
2022/11/06 10:45:32;;;;;;;3.65;1.60;;;;;;;;;;4998330;28;20037;-91
2022/11/06 10:48:30;;;;;;;7.05;1.70;;;;;;;;;;4999544;28;20034;-90
2022/11/06 10:52:04;;;;;;;7.45;1.52;;;;;;;;;;4979129;28;20049;-91
2022/11/06 10:55:50;;;;;;;8.35;1.67;;;;;;;;;;5004057;28;20061;-91
2022/11/06 10:58:22;;;;;;;6.80;2.03;;;;;;;;;;4978201;28;20053;-91
2022/11/06 11:00:59;;;;;;;4.50;1.50;;;;;;;;;;4960592;28;20033;-92
2022/11/06 11:03:34;;;;;;;4.50;1.73;;;;;;;;;;4977179;28;20046;-91
2022/11/06 11:06:26;;;;;;;6.97;1.90;;;;;;;;;;4979693;28;20029;-92
2022/11/06 11:09:33;;;;;;;6.20;2.00;;;;;;;;;;4993221;28;20412;-92
2022/11/06 11:12:30;;;;;;;5.45;1.85;;;;;;;;;;4960451;28;20137;-91
2022/11/06 11:15:15;;;;;;;5.75;1.80;;;;;;;;;;4992211;28;20070;-92
2022/11/06 11:18:07;;;;;;;4.30;1.52;;;;;;;;;;4975991;28;20037;-92
2022/11/06 11:37:32;;;;;;;4.70;1.40;;;;;;;;;;5111073;23;20049;-92
2022/11/06 11:41:35;;;;;;;5.22;1.52;;;;;;;;;;4994713;28;20034;-89
2022/11/06 11:44:27;;;;;;;4.75;1.88;;;;;;;;;;4997341;28;20049;-90
2022/11/06 11:47:46;;;;;;;9.82;1.63;;;;;;;;;;4988935;28;20038;-89
2022/11/06 11:51:38;;;;;;;5.70;1.73;;;;;;;;;;4978549;28;20050;-89
2022/11/06 11:55:13;;;;;;;8.50;2.00;;;;;;;;;;4977149;28;20502;-91
2022/11/06 11:58:29;;;;;;;4.03;1.38;;;;;;;;;;4946815;28;20152;-89
2022/11/06 12:02:22;;;;;;;4.65;1.38;;;;;;;;;;4977420;28;20445;-91
2022/11/06 12:05:35;;;;;;;7.75;1.80;;;;;;;;;;4968776;28;20103;-90
2022/11/06 12:09:10;;;;;;;5.70;1.60;;;;;;;;;;4951769;28;20059;-90
2022/11/06 12:12:50;;;;;;;3.95;1.30;;;;;;;;;;4962207;28;20054;-90
2022/11/06 12:16:12;;;;;;;3.92;1.35;;;;;;;;;;4927420;28;20070;-90
2022/11/06 12:19:53;;;;;;;3.33;1.52;;;;;;;;;;4926175;29;20138;-91
2022/11/06 12:33:20;;;;;;;;;;;;;;;;;;5122450;27;20773;-91
2022/11/06 12:36:12;;;;;;;2.45;1.30;;;;;;;;;;5108368;28;20709;-90
2022/11/06 12:39:11;;;;;;;3.40;1.38;;;;;;;;;;5111720;28;20036;-91
2022/11/06 12:41:47;;;;;;;4.07;1.52;;;;;;;;;;5080286;28;20039;-92
2022/11/06 12:44:40;;;;;;;4.28;1.35;;;;;;;;;;5088803;28;20084;-90
2022/11/06 12:47:39;;;;;;;4.75;1.50;;;;;;;;;;5095081;28;20035;-91
2022/11/06 12:50:34;;;;;;;2.55;1.20;;;;;;;;;;5067748;28;20427;-89
2022/11/06 12:53:37;;;;;;;5.30;1.50;;;;;;;;;;5110718;28;20066;-90
2022/11/06 12:56:23;;;;;;;4.80;1.60;;;;;;;;;;5083187;28;20032;-90
2022/11/06 12:59:24;;;;;;;5.65;1.42;;;;;;;;;;5092831;28;20067;-90
2022/11/06 13:02:20;;;;;;;5.22;1.40;;;;;;;;;;5081582;28;20047;-91
2022/11/06 13:05:20;;;;;;;4.70;1.30;;;;;;;;;;5113764;28;20060;-91
2022/11/06 13:08:42;;;;;;;4.30;1.65;;;;;;;;;;5094075;27;20028;-90
2022/11/06 13:12:12;;;;;;;2.88;1.30;;;;;;;;;;5090609;28;20441;-90
2022/11/06 13:14:51;;;;;;;5.75;1.40;;;;;;;;;;4998582;28;20046;-91
2022/11/06 13:17:32;;;;;;;3.65;1.58;;;;;;;;;;4985547;28;20046;-92
2022/11/06 13:20:36;;;;;;;6.28;1.45;;;;;;;;;;5007003;28;20068;-91
2022/11/06 13:23:57;;;;;;;4.55;1.50;;;;;;;;;;5010395;28;20038;-90
2022/11/06 13:26:46;;;;;;;4.28;1.58;;;;;;;;;;5011564;28;20597;-88
2022/11/06 13:29:21;;;;;;;3.55;1.60;;;;;;;;;;5008302;28;20136;-88
2022/11/06 13:31:56;;;;;;;3.42;1.67;;;;;;;;;;5009967;28;20046;-89
2022/11/06 13:34:36;;;;;;;3.47;1.52;;;;;;;;;;4999477;28;20065;-87
2022/11/06 13:37:23;;;;;;;4.75;1.50;;;;;;;;;;4980620;28;20107;-87
2022/11/06 13:40:03;;;;;;;5.03;1.85;;;;;;;;;;4995614;28;20052;-88
2022/11/06 13:42:38;;;;;;;3.15;1.73;;;;;;;;;;4988156;28;20046;-88
2022/11/06 13:45:08;;;;;;;6.18;2.30;;;;;;;;;;4996662;28;20054;-88
2022/11/06 13:47:54;;;;;;;8.95;1.88;;;;;;;;;;4980912;28;20127;-86
2022/11/06 13:50:51;;;;;;;6.28;2.30;;;;;;;;;;4983871;28;20041;-87
2022/11/06 13:53:27;;;;;;;4.97;2.00;;;;;;;;;;5080892;28;20495;-88
2022/11/06 13:56:14;;;;;;;5.47;2.00;;;;;;;;;;5077790;27;20139;-89
2022/11/06 13:59:01;;;;;;;4.95;1.70;;;;;;;;;;5067529;28;20563;-89
2022/11/06 14:02:11;;;;;;;3.17;1.48;;;;;;;;;;5095255;28;20056;-89
2022/11/06 14:05:06;;;;;;;4.53;1.65;;;;;;;;;;5062592;28;20077;-89
2022/11/06 14:07:37;;;;;;;4.45;1.92;;;;;;;;;;5076563;28;20048;-89
2022/11/06 14:10:21;;;;;;;5.22;1.60;;;;;;;;;;5077690;28;20036;-89
2022/11/06 14:12:49;;;;;;;4.38;1.73;;;;;;;;;;5097420;28;20039;-89
2022/11/06 14:15:19;;;;;;;6.70;1.88;;;;;;;;;;5072563;28;20480;-88
2022/11/06 14:17:55;;;;;;;5.05;1.90;;;;;;;;;;5076494;28;20036;-88
2022/11/06 14:20:31;;;;;;;7.63;1.70;;;;;;;;;;5081353;28;20052;-88
2022/11/06 14:23:29;;;;;;;3.60;1.90;;;;;;;;;;5080700;28;20032;-89
2022/11/06 14:26:37;;;;;;;3.60;1.75;;;;;;;;;;5077927;28;20027;-89
2022/11/06 14:29:34;;;;;;;7.93;2.38;;;;;;;;;;5076632;28;20039;-88
2022/11/06 14:32:05;;;;;;;3.80;2.00;;;;;;;;;;4988813;28;20050;-88
2022/11/06 14:35:36;;;;;;;6.43;2.38;;;;;;;;;;5006066;28;20049;-88
2022/11/06 14:38:30;;;;;;;4.25;1.80;;;;;;;;;;4957118;28;20586;-88
2022/11/06 14:41:34;;;;;;;3.97;2.15;;;;;;;;;;4956146;28;20042;-87
2022/11/06 14:44:32;;;;;;;4.35;1.85;;;;;;;;;;4953096;28;20107;-88
2022/11/06 14:47:09;;;;;;;6.60;2.42;;;;;;;;;;4954605;28;20402;-87
2022/11/06 14:50:17;;;;;;;4.55;1.88;;;;;;;;;;4957743;28;20410;-88
2022/11/06 14:52:53;;;;;;;5.40;2.33;;;;;;;;;;4951645;28;22118;-88
2022/11/06 14:55:59;;;;;;;7.18;2.63;;;;;;;;;;4956476;28;20056;-88
2022/11/06 14:58:39;;;;;;;7.93;3.10;;;;;;;;;;4955106;28;20043;-86
2022/11/06 15:01:09;;;;;;;6.80;3.08;;;;;;;;;;4953911;28;20126;-88
2022/11/06 15:03:39;;;;;;;5.38;2.30;;;;;;;;;;4956392;28;20066;-91
2022/11/06 15:06:28;;;;;;;5.03;2.30;;;;;;;;;;4937366;28;20490;-91
2022/11/06 15:09:04;;;;;;;7.57;2.40;;;;;;;;;;5029691;28;20051;-90
2022/11/06 15:12:01;;;;;;;6.22;2.35;;;;;;;;;;5069330;28;20501;-91
2022/11/06 15:14:54;;;;;;;5.13;2.70;;;;;;;;;;5076370;28;20073;-90
2022/11/06 15:17:28;;;;;;;5.38;2.28;;;;;;;;;;5081800;28;20035;-91
2022/11/06 15:20:12;;;;;;;6.45;2.20;;;;;;;;;;5081822;28;20062;-90
2022/11/06 15:22:49;;;;;;;5.05;2.20;;;;;;;;;;5081340;28;20426;-92
2022/11/06 15:25:26;;;;;;;4.18;2.00;;;;;;;;;;5058535;28;20075;-89
2022/11/06 15:28:03;;;;;;;6.78;2.20;;;;;;;;;;5064398;28;20044;-91
2022/11/06 15:30:44;;;;;;;3.75;2.03;;;;;;;;;;5060928;28;20047;-90
2022/11/06 15:33:19;;;;;;;7.50;2.25;;;;;;;;;;5093273;28;20036;-90
2022/11/06 15:35:57;;;;;;;6.18;2.40;;;;;;;;;;5078833;28;20040;-90
2022/11/06 15:38:41;;;;;;;5.70;2.50;;;;;;;;;;5096843;28;20043;-88
2022/11/06 15:41:22;;;;;;;4.53;2.42;;;;;;;;;;5067837;28;20135;-89
2022/11/06 15:43:50;;;;;;;8.50;2.80;;;;;;;;;;5094763;28;20040;-88
2022/11/06 15:46:24;;;;;;;5.53;2.38;;;;;;;;;;5062199;28;20047;-89
2022/11/06 15:52:17;;;;;;;6.68;2.20;;;;;;;;;;4982272;28;20050;-88
2022/11/06 15:54:45;;;;;;;5.45;2.25;;;;;;;;;;4982834;28;20537;-87
2022/11/06 15:57:29;;;;;;;6.97;2.45;;;;;;;;;;4984634;28;20093;-89
2022/11/06 16:00:25;;;;;;;3.90;1.95;;;;;;;;;;4968620;28;20051;-89
2022/11/06 16:03:00;;;;;;;8.02;3.80;;;;;;;;;;4909975;29;20079;-88
2022/11/06 16:05:30;;;;;;;7.72;2.50;;;;;;;;;;4896882;29;20600;-88
2022/11/06 16:07:59;;;;;;;5.22;2.67;;;;;;;;;;4907884;29;20151;-87
2022/11/06 16:10:51;;;;;;;6.18;2.55;;;;;;;;;;4914157;29;20040;-87
2022/11/06 16:13:21;;;;;;;9.52;2.33;;;;;;;;;;4907639;29;20056;-87
2022/11/06 16:15:57;;;;;;;5.10;2.30;;;;;;;;;;4894969;29;20124;-87
2022/11/06 16:18:26;;;;;;;8.18;2.78;;;;;;;;;;4926849;29;20052;-87
2022/11/06 16:21:22;;;;;;;6.47;2.40;;;;;;;;;;4927296;29;20547;-87
2022/11/06 16:24:06;;;;;;;4.47;2.50;;;;;;;;;;4908160;29;20055;-87
2022/11/06 16:26:45;;;;;;;4.13;2.00;;;;;;;;;;4926724;29;20063;-87
2022/11/06 16:29:18;;;;;;;5.40;1.98;;;;;;;;;;4971810;28;20081;-87
2022/11/06 16:31:48;;;;;;;5.30;1.90;;;;;;;;;;4977266;28;20065;-87
2022/11/06 16:34:38;;;;;;;5.22;2.08;;;;;;;;;;4978942;28;20533;-87
2022/11/06 16:37:28;;;;;;;6.40;2.08;;;;;;;;;;4985743;28;20097;-88
2022/11/06 16:40:48;;;;;;;6.63;2.38;;;;;;;;;;5053183;28;20066;-87
2022/11/06 16:43:22;;;;;;;5.03;2.05;;;;;;;;;;5078742;28;20038;-87
2022/11/06 16:45:51;;;;;;;9.00;2.50;;;;;;;;;;5076164;28;20128;-88
2022/11/06 16:48:33;;;;;;;6.00;2.53;;;;;;;;;;5094194;28;20044;-86
2022/11/06 16:51:08;;;;;;;7.25;2.63;;;;;;;;;;5076149;28;20039;-86
2022/11/06 16:54:03;;;;;;;8.52;2.33;;;;;;;;;;5093469;28;20797;-86
2022/11/06 16:56:33;;;;;;;3.78;2.17;;;;;;;;;;5085949;28;20039;-86
2022/11/06 16:59:12;;;;;;;5.70;2.20;;;;;;;;;;5080746;28;20039;-87
2022/11/06 17:01:41;;;;;;;7.18;2.40;;;;;;;;;;5054266;28;20435;-87
2022/11/06 17:04:25;;;;;;;6.38;2.30;;;;;;;;;;5094495;28;20038;-87
2022/11/06 17:06:53;;;;;;;5.25;2.22;;;;;;;;;;5095342;28;20042;-87
2022/11/06 17:09:24;;;;;;;7.50;2.20;;;;;;;;;;5080319;28;20145;-87
2022/11/06 17:12:16;;;;;;;5.43;2.25;;;;;;;;;;5084886;28;20036;-87